createdAt,value
2018-04-16T00:01:12.663Z,69.50
2018-04-16T00:03:49.236Z,68.70
2018-04-16T00:06:26.898Z,68.70
2018-04-16T00:09:03.759Z,68.00
2018-04-16T00:11:40.433Z,68.80
2018-04-16T00:14:16.104Z,68.40
2018-04-16T00:16:52.020Z,69.60
2018-04-16T00:19:28.354Z,70.60
2018-04-16T00:22:03.664Z,71.20
2018-04-16T00:24:39.314Z,72.10
2018-04-16T00:27:14.613Z,72.80
2018-04-16T00:29:50.365Z,73.60
2018-04-16T00:32:32.154Z,73.70
2018-04-16T00:35:16.531Z,74.80
2018-04-16T00:38:00.030Z,75.70
2018-04-16T00:40:41.383Z,75.10
2018-04-16T00:43:22.361Z,73.10
2018-04-16T00:46:03.296Z,71.70
2018-04-16T00:48:47.355Z,71.50
2018-04-16T00:51:30.880Z,73.40
2018-04-16T00:54:27.805Z,72.70
2018-04-16T00:57:11.016Z,76.20
2018-04-16T00:59:52.554Z,72.70
2018-04-16T01:02:34.026Z,73.10
2018-04-16T01:05:15.116Z,74.20
2018-04-16T01:07:57.667Z,70.90
2018-04-16T01:10:40.439Z,71.50
2018-04-16T01:13:22.168Z,71.20
2018-04-16T01:16:03.248Z,72.50
2018-04-16T01:18:49.065Z,73.00
2018-04-16T01:21:30.173Z,72.60
2018-04-16T01:24:12.970Z,72.20
2018-04-16T01:26:55.715Z,72.00
2018-04-16T01:29:38.006Z,74.10
2018-04-16T01:32:20.581Z,75.50
2018-04-16T01:35:03.494Z,76.50
2018-04-16T01:37:44.653Z,76.50
2018-04-16T01:40:26.344Z,77.20
2018-04-16T01:43:08.034Z,76.90
2018-04-16T01:45:50.928Z,77.30
2018-04-16T01:48:32.742Z,77.20
2018-04-16T01:51:15.974Z,76.40
2018-04-16T01:57:11.236Z,78.70
2018-04-16T01:59:53.647Z,79.70
2018-04-16T02:02:35.591Z,79.90
2018-04-16T02:05:17.366Z,80.20
2018-04-16T02:07:59.125Z,80.50
2018-04-16T02:10:41.478Z,80.40
2018-04-16T02:13:23.910Z,79.60
2018-04-16T02:16:07.378Z,78.20
2018-04-16T02:18:48.836Z,78.50
2018-04-16T02:21:30.145Z,78.70
2018-04-16T02:24:11.525Z,78.50
2018-04-16T02:26:54.947Z,79.00
2018-04-16T02:29:36.890Z,79.40
2018-04-16T02:32:28.274Z,81.10
2018-04-16T02:35:10.383Z,81.00
2018-04-16T02:37:51.955Z,81.20
2018-04-16T02:40:34.187Z,81.90
2018-04-16T02:43:15.611Z,81.90
2018-04-16T02:45:58.288Z,82.00
2018-04-16T02:48:39.596Z,82.40
2018-04-16T02:51:20.990Z,82.80
2018-04-16T02:54:02.430Z,83.10
2018-04-16T02:56:45.603Z,82.40
2018-04-16T02:59:28.628Z,82.40
2018-04-16T03:02:09.858Z,81.70
2018-04-16T03:04:50.911Z,81.60
2018-04-16T03:07:34.208Z,80.70
2018-04-16T03:10:15.641Z,80.70
2018-04-16T03:12:58.538Z,81.80
2018-04-16T03:15:39.858Z,81.80
2018-04-16T03:18:22.241Z,82.60
2018-04-16T03:21:04.089Z,82.50
2018-04-16T03:23:46.172Z,82.90
2018-04-16T03:26:26.824Z,82.70
2018-04-16T03:29:09.003Z,84.30
2018-04-16T03:31:50.345Z,83.60
2018-04-16T03:34:31.811Z,83.60
2018-04-16T03:40:22.671Z,81.40
2018-04-16T03:43:05.155Z,82.00
2018-04-16T03:45:51.172Z,82.60
2018-04-16T03:48:32.569Z,83.30
2018-04-16T03:51:09.881Z,82.20
2018-04-16T03:53:52.359Z,82.50
2018-04-16T03:56:28.317Z,83.60
2018-04-16T03:59:04.403Z,84.30
2018-04-16T04:01:40.712Z,84.70
2018-04-16T04:04:16.460Z,85.30
2018-04-16T04:06:52.588Z,85.00
2018-04-16T04:09:29.091Z,85.10
2018-04-16T04:12:06.187Z,85.00
2018-04-16T04:14:41.794Z,85.50
2018-04-16T04:17:16.859Z,85.40
2018-04-16T04:19:53.131Z,85.70
2018-04-16T04:22:39.747Z,84.80
2018-04-16T04:25:27.122Z,83.80
2018-04-16T04:28:13.889Z,83.50
2018-04-16T04:30:50.606Z,84.30
2018-04-16T04:33:26.607Z,84.30
2018-04-16T04:36:02.399Z,84.90
2018-04-16T04:38:37.882Z,83.60
2018-04-16T04:41:16.320Z,83.80
2018-04-16T04:43:52.649Z,83.80
2018-04-16T04:46:29.027Z,85.30
2018-04-16T04:49:04.787Z,85.40
2018-04-16T04:51:40.422Z,85.70
2018-04-16T04:54:21.988Z,84.70
2018-04-16T04:56:58.297Z,84.00
2018-04-16T04:59:34.563Z,84.70
2018-04-16T05:02:12.155Z,84.10
2018-04-16T05:04:49.583Z,84.20
2018-04-16T05:07:25.736Z,84.60
2018-04-16T05:10:02.189Z,84.50
2018-04-16T05:12:41.950Z,84.70
2018-04-16T05:15:18.914Z,85.00
2018-04-16T05:17:56.482Z,84.70
2018-04-16T05:20:34.130Z,85.10
2018-04-16T05:23:10.470Z,85.20
2018-04-16T05:25:46.132Z,85.20
2018-04-16T05:28:21.939Z,84.20
2018-04-16T05:30:57.950Z,83.90
2018-04-16T05:33:35.303Z,84.00
2018-04-16T05:36:11.590Z,83.80
2018-04-16T05:38:47.706Z,83.90
2018-04-16T05:41:23.839Z,83.80
2018-04-16T05:44:00.603Z,83.50
2018-04-16T05:46:36.825Z,83.00
2018-04-16T05:49:12.581Z,83.40
2018-04-16T05:51:50.090Z,84.30
2018-04-16T05:54:28.440Z,84.30
2018-04-16T05:57:04.160Z,83.50
2018-04-16T05:59:40.780Z,83.60
2018-04-16T06:02:18.115Z,83.00
2018-04-16T06:04:55.788Z,83.50
2018-04-16T06:07:31.823Z,83.20
2018-04-16T06:10:08.075Z,83.30
2018-04-16T06:12:45.426Z,83.20
2018-04-16T06:15:21.703Z,83.20
2018-04-16T06:17:57.359Z,83.80
2018-04-16T06:20:34.325Z,82.80
2018-04-16T06:23:10.898Z,82.80
2018-04-16T06:25:46.344Z,82.60
2018-04-16T06:28:21.832Z,83.80
2018-04-16T06:30:58.575Z,83.80
2018-04-16T06:33:35.657Z,84.30
2018-04-16T06:36:11.307Z,84.50
2018-04-16T06:38:47.683Z,84.60
2018-04-16T06:41:23.574Z,84.90
2018-04-16T06:44:02.620Z,84.20
2018-04-16T06:46:39.030Z,84.30
2018-04-16T06:49:15.769Z,84.10
2018-04-16T06:51:51.247Z,84.40
2018-04-16T06:54:27.231Z,84.30
2018-04-16T06:57:03.276Z,84.10
2018-04-16T06:59:39.703Z,83.90
2018-04-16T07:02:15.451Z,85.20
2018-04-16T07:04:51.917Z,85.10
2018-04-16T07:07:29.651Z,85.10
2018-04-16T07:10:05.062Z,85.60
2018-04-16T07:12:43.914Z,85.40
2018-04-16T07:15:20.004Z,85.10
2018-04-16T07:17:55.796Z,84.80
2018-04-16T07:20:32.723Z,84.30
2018-04-16T07:23:10.235Z,83.20
2018-04-16T07:25:46.614Z,83.10
2018-04-16T07:28:24.657Z,83.40
2018-04-16T07:31:03.160Z,83.40
2018-04-16T07:33:40.564Z,82.30
2018-04-16T07:36:18.125Z,82.60
2018-04-16T07:38:53.323Z,82.50
2018-04-16T07:41:29.180Z,82.90
2018-04-16T07:44:05.859Z,82.20
2018-04-16T07:46:41.891Z,81.10
2018-04-16T07:49:18.273Z,81.20
2018-04-16T07:51:54.645Z,82.70
2018-04-16T07:54:30.695Z,82.90
2018-04-16T07:57:06.519Z,83.10
2018-04-16T07:59:43.327Z,81.50
2018-04-16T08:02:20.382Z,81.50
2018-04-16T08:04:56.746Z,82.10
2018-04-16T08:07:32.283Z,81.70
2018-04-16T08:10:08.881Z,80.50
2018-04-16T08:12:44.484Z,81.30
2018-04-16T08:15:20.413Z,81.30
2018-04-16T08:17:57.426Z,81.80
2018-04-16T08:20:34.056Z,81.80
2018-04-16T08:23:10.702Z,82.40
2018-04-16T08:25:46.467Z,82.80
2018-04-16T08:28:22.512Z,82.40
2018-04-16T08:30:58.564Z,83.30
2018-04-16T08:33:34.402Z,84.00
2018-04-16T08:36:09.897Z,84.10
2018-04-16T08:38:45.285Z,84.30
2018-04-16T08:41:20.976Z,84.40
2018-04-16T08:43:57.415Z,84.10
2018-04-16T08:46:33.095Z,84.20
2018-04-16T08:49:08.817Z,83.30
2018-04-16T08:51:44.916Z,82.80
2018-04-16T08:54:22.369Z,83.00
2018-04-16T08:56:59.497Z,82.80
2018-04-16T08:59:35.537Z,83.10
2018-04-16T09:02:10.492Z,83.30
2018-04-16T09:04:53.563Z,82.30
2018-04-16T09:07:29.248Z,82.10
2018-04-16T09:10:05.017Z,82.70
2018-04-16T09:12:42.261Z,82.50
2018-04-16T09:15:20.292Z,83.20
2018-04-16T09:17:56.345Z,83.30
2018-04-16T09:20:31.486Z,83.10
2018-04-16T09:23:07.125Z,83.60
2018-04-16T09:25:43.152Z,83.60
2018-04-16T09:28:18.520Z,83.20
2018-04-16T09:30:54.978Z,82.90
2018-04-16T09:33:31.177Z,83.10
2018-04-16T09:36:07.713Z,83.10
2018-04-16T09:38:43.681Z,82.60
2018-04-16T09:41:21.515Z,81.50
2018-04-16T09:43:58.805Z,81.50
2018-04-16T09:46:34.391Z,80.90
2018-04-16T09:49:11.071Z,80.30
2018-04-16T09:51:49.009Z,80.70
2018-04-16T09:54:25.392Z,81.80
2018-04-16T09:57:01.126Z,82.30
2018-04-16T09:59:36.843Z,81.60
2018-04-16T10:02:19.150Z,82.10
2018-04-16T10:04:55.876Z,81.70
2018-04-16T10:07:33.472Z,81.80
2018-04-16T10:10:10.171Z,81.40
2018-04-16T10:12:46.367Z,81.50
2018-04-16T10:15:21.852Z,82.10
2018-04-16T10:17:57.312Z,81.40
2018-04-16T10:20:36.261Z,81.40
2018-04-16T10:23:12.604Z,81.60
2018-04-16T10:25:48.779Z,82.00
2018-04-16T10:28:25.448Z,81.20
2018-04-16T10:31:02.169Z,81.80
2018-04-16T10:33:39.163Z,81.50
2018-04-16T10:36:15.186Z,81.70
2018-04-16T10:38:50.780Z,81.80
2018-04-16T10:41:27.632Z,81.70
2018-04-16T10:44:04.396Z,81.90
2018-04-16T10:46:40.851Z,81.20
2018-04-16T10:49:16.943Z,81.50
2018-04-16T10:51:52.824Z,81.20
2018-04-16T10:54:28.319Z,81.40
2018-04-16T10:57:04.524Z,82.10
2018-04-16T10:59:40.800Z,82.00
2018-04-16T11:02:16.986Z,82.00
2018-04-16T11:04:52.523Z,80.50
2018-04-16T11:07:28.190Z,81.10
2018-04-16T11:10:03.964Z,80.90
2018-04-16T11:12:40.679Z,80.40
2018-04-16T11:15:16.668Z,81.80
2018-04-16T11:17:52.751Z,81.20
2018-04-16T11:20:29.490Z,81.60
2018-04-16T11:23:07.593Z,81.80
2018-04-16T11:25:43.153Z,81.80
2018-04-16T11:28:19.186Z,82.30
2018-04-16T11:30:54.619Z,81.10
2018-04-16T11:33:30.685Z,82.00
2018-04-16T11:36:07.935Z,82.40
2018-04-16T11:38:44.264Z,82.00
2018-04-16T11:41:19.807Z,81.70
2018-04-16T11:43:56.793Z,81.60
2018-04-16T11:46:33.547Z,81.70
2018-04-16T11:49:10.560Z,82.20
2018-04-16T11:51:46.220Z,82.80
2018-04-16T11:54:21.871Z,83.10
2018-04-16T11:56:58.127Z,82.50
2018-04-16T11:59:33.984Z,82.90
2018-04-16T12:02:10.758Z,81.90
2018-04-16T12:04:47.918Z,81.60
2018-04-16T12:07:23.629Z,82.00
2018-04-16T12:09:59.425Z,82.50
2018-04-16T12:12:35.167Z,82.30
2018-04-16T12:15:10.995Z,82.90
2018-04-16T12:17:46.892Z,82.80
2018-04-16T12:20:22.742Z,83.00
2018-04-16T12:22:59.731Z,82.80
2018-04-16T12:25:37.118Z,83.10
2018-04-16T12:28:13.034Z,83.20
2018-04-16T12:30:49.268Z,83.30
2018-04-16T12:33:25.371Z,83.30
2018-04-16T12:36:02.459Z,83.00
2018-04-16T12:38:40.576Z,83.50
2018-04-16T12:41:17.472Z,83.60
2018-04-16T12:43:55.200Z,83.20
2018-04-16T12:46:33.571Z,82.80
2018-04-16T12:49:11.278Z,83.60
2018-04-16T12:51:48.948Z,83.50
2018-04-16T12:54:25.123Z,83.00
2018-04-16T12:57:02.601Z,82.80
2018-04-16T12:59:38.410Z,83.80
2018-04-16T13:02:14.175Z,84.10
2018-04-16T13:04:49.879Z,84.40
2018-04-16T13:07:25.402Z,84.50
2018-04-16T13:10:01.135Z,83.10
2018-04-16T13:12:36.825Z,84.10
2018-04-16T13:15:13.118Z,83.10
2018-04-16T13:17:49.698Z,83.30
2018-04-16T13:20:25.582Z,83.50
2018-04-16T13:23:04.364Z,84.20
2018-04-16T13:25:41.495Z,83.70
2018-04-16T13:28:17.847Z,84.10
2018-04-16T13:30:55.060Z,84.20
2018-04-16T13:33:31.448Z,84.10
2018-04-16T13:36:06.826Z,84.40
2018-04-16T13:38:43.830Z,84.60
2018-04-16T13:41:20.385Z,84.10
2018-04-16T13:43:56.815Z,84.50
2018-04-16T13:46:34.072Z,84.50
2018-04-16T13:49:09.665Z,84.70
2018-04-16T13:51:45.106Z,84.90
2018-04-16T13:54:20.892Z,85.00
2018-04-16T13:56:56.530Z,84.80
2018-04-16T13:59:32.871Z,84.30
2018-04-16T14:02:09.505Z,85.20
2018-04-16T14:04:45.910Z,84.80
2018-04-16T14:07:21.464Z,84.40
2018-04-16T14:09:57.107Z,84.10
2018-04-16T14:12:33.856Z,84.00
2018-04-16T14:15:10.183Z,83.70
2018-04-16T14:17:48.055Z,83.80
2018-04-16T14:20:24.445Z,84.40
2018-04-16T14:23:00.154Z,83.80
2018-04-16T14:25:36.279Z,84.10
2018-04-16T14:28:13.911Z,84.10
2018-04-16T14:30:50.817Z,83.30
2018-04-16T14:33:28.298Z,83.60
2018-04-16T14:36:04.203Z,83.80
2018-04-16T14:38:40.011Z,83.40
2018-04-16T14:41:16.206Z,83.00
2018-04-16T14:43:54.287Z,81.70
2018-04-16T14:46:30.947Z,82.80
2018-04-16T14:49:06.920Z,82.50
2018-04-16T14:51:42.671Z,82.20
2018-04-16T14:54:18.222Z,82.00
2018-04-16T14:56:54.172Z,82.40
2018-04-16T14:59:29.413Z,82.70
2018-04-16T15:02:06.023Z,81.70
2018-04-16T15:04:41.503Z,81.70
2018-04-16T15:07:20.191Z,80.90
2018-04-16T15:09:56.961Z,80.80
2018-04-16T15:12:34.839Z,81.20
2018-04-16T15:15:12.439Z,81.10
2018-04-16T15:17:48.469Z,80.70
2018-04-16T15:20:24.538Z,81.30
2018-04-16T15:23:00.088Z,81.10
2018-04-16T15:25:37.351Z,81.60
2018-04-16T15:28:13.286Z,82.00
2018-04-16T15:30:51.271Z,81.30
2018-04-16T15:33:26.958Z,81.20
2018-04-16T15:36:03.020Z,81.70
2018-04-16T15:38:39.150Z,82.30
2018-04-16T15:41:14.573Z,83.20
2018-04-16T15:43:51.191Z,82.70
2018-04-16T15:46:26.942Z,82.40
2018-04-16T15:49:03.753Z,82.80
2018-04-16T15:51:40.711Z,83.00
2018-04-16T15:54:16.354Z,82.90
2018-04-16T15:56:52.097Z,82.80
2018-04-16T15:59:30.716Z,82.70
2018-04-16T16:02:05.963Z,82.70
2018-04-16T16:04:42.749Z,83.60
2018-04-16T16:07:18.139Z,83.30
2018-04-16T16:09:59.081Z,82.90
2018-04-16T16:12:35.642Z,82.80
2018-04-16T16:15:11.058Z,82.60
2018-04-16T16:17:47.068Z,83.10
2018-04-16T16:20:23.082Z,83.80
2018-04-16T16:22:59.131Z,83.00
2018-04-16T16:25:35.577Z,83.30
2018-04-16T16:28:11.863Z,83.70
2018-04-16T16:30:49.460Z,83.80
2018-04-16T16:33:25.507Z,84.00
2018-04-16T16:36:02.496Z,84.40
2018-04-16T16:38:38.848Z,84.70
2018-04-16T16:41:15.557Z,84.10
2018-04-16T16:43:54.090Z,83.30
2018-04-16T16:46:30.429Z,83.00
2018-04-16T16:49:06.778Z,83.50
2018-04-16T16:51:43.471Z,83.20
2018-04-16T16:54:20.456Z,84.30
2018-04-16T16:56:56.594Z,84.40
2018-04-16T16:59:32.438Z,84.10
2018-04-16T17:02:08.527Z,84.20
2018-04-16T17:04:44.098Z,84.10
2018-04-16T17:07:19.836Z,84.30
2018-04-16T17:09:55.607Z,83.70
2018-04-16T17:12:31.952Z,84.30
2018-04-16T17:15:07.986Z,83.90
2018-04-16T17:17:44.366Z,84.30
2018-04-16T17:20:19.837Z,84.30
2018-04-16T17:22:55.530Z,84.90
2018-04-16T17:25:32.496Z,85.30
2018-04-16T17:28:08.259Z,85.30
2018-04-16T17:30:45.659Z,85.60
2018-04-16T17:33:21.806Z,85.60
2018-04-16T17:35:57.331Z,86.10
2018-04-16T17:38:32.471Z,86.00
2018-04-16T17:41:09.223Z,86.30
2018-04-16T17:43:44.912Z,86.60
2018-04-16T17:46:21.363Z,87.10
2018-04-16T17:48:57.525Z,87.30
2018-04-16T17:51:33.992Z,87.90
2018-04-16T17:54:09.128Z,88.00
2018-04-16T17:56:44.416Z,88.10
2018-04-16T17:59:21.447Z,87.80
2018-04-16T18:01:58.775Z,88.30
2018-04-16T18:04:34.825Z,88.30
2018-04-16T18:07:12.162Z,88.20
2018-04-16T18:09:48.221Z,88.40
2018-04-16T18:12:24.937Z,88.40
2018-04-16T18:15:05.615Z,88.70
2018-04-16T18:17:44.321Z,88.20
2018-04-16T18:20:19.601Z,88.30
2018-04-16T18:22:56.517Z,87.90
2018-04-16T18:25:33.324Z,88.20
2018-04-16T18:28:09.815Z,88.50
2018-04-16T18:30:45.665Z,88.20
2018-04-16T18:33:21.488Z,88.70
2018-04-16T18:35:58.091Z,88.60
2018-04-16T18:38:33.839Z,88.80
2018-04-16T18:41:09.582Z,88.80
2018-04-16T18:43:45.350Z,87.90
2018-04-16T18:46:21.305Z,88.00
2018-04-16T18:48:57.438Z,88.20
2018-04-16T18:51:34.789Z,87.90
2018-04-16T18:54:12.151Z,88.20
2018-04-16T18:56:47.831Z,88.30
2018-04-16T18:59:25.879Z,88.00
2018-04-16T19:02:01.422Z,88.00
2018-04-16T19:04:38.199Z,87.90
2018-04-16T19:07:14.984Z,87.90
2018-04-16T19:09:50.609Z,87.70
2018-04-16T19:12:26.941Z,87.50
2018-04-16T19:15:03.676Z,87.20
2018-04-16T19:17:46.099Z,87.20
2018-04-16T19:20:29.304Z,87.40
2018-04-16T19:23:07.172Z,87.20
2018-04-16T19:25:43.957Z,87.30
2018-04-16T19:28:19.310Z,87.10
2018-04-16T19:30:56.353Z,87.00
2018-04-16T19:33:37.693Z,87.10
2018-04-16T19:36:16.003Z,87.10
2018-04-16T19:38:54.462Z,87.50
2018-04-16T19:41:53.969Z,87.20
2018-04-16T19:44:29.582Z,87.10
2018-04-16T19:47:06.726Z,88.00
2018-04-16T19:49:48.131Z,87.70
2018-04-16T19:52:24.853Z,87.20
2018-04-16T19:55:03.596Z,88.00
2018-04-16T19:57:45.044Z,88.00
2018-04-16T20:00:22.007Z,87.20
2018-04-16T20:03:04.175Z,87.20
2018-04-16T20:05:42.199Z,87.30
2018-04-16T20:08:19.133Z,86.70
2018-04-16T20:10:57.499Z,87.00
2018-04-16T20:13:33.059Z,86.80
2018-04-16T20:16:10.634Z,87.30
2018-04-16T20:18:47.240Z,86.80
2018-04-16T20:21:23.337Z,86.40
2018-04-16T20:23:59.379Z,86.40
2018-04-16T20:26:36.397Z,86.70
2018-04-16T20:29:12.217Z,86.90
2018-04-16T20:31:47.373Z,87.10
2018-04-16T20:34:23.027Z,87.30
2018-04-16T20:36:58.743Z,86.80
2018-04-16T20:39:36.110Z,88.00
2018-04-16T20:42:12.189Z,87.60
2018-04-16T20:44:47.963Z,87.60
2018-04-16T20:47:25.900Z,87.20
2018-04-16T20:50:03.462Z,87.50
2018-04-16T20:52:40.359Z,87.80
2018-04-16T20:55:17.107Z,87.80
2018-04-16T20:57:53.711Z,88.40
2018-04-16T21:00:29.372Z,87.50
2018-04-16T21:03:05.176Z,87.00
2018-04-16T21:05:42.466Z,87.00
2018-04-16T21:08:17.849Z,86.40
2018-04-16T21:10:54.331Z,86.40
2018-04-16T21:13:30.210Z,86.30
2018-04-16T21:16:07.102Z,87.30
2018-04-16T21:18:42.868Z,87.70
2018-04-16T21:21:19.298Z,88.00
2018-04-16T21:23:55.225Z,86.60
2018-04-16T21:26:32.164Z,88.00
2018-04-16T21:29:09.512Z,88.00
2018-04-16T21:31:47.257Z,88.20
2018-04-16T21:34:25.983Z,87.60
2018-04-16T21:37:02.872Z,86.70
2018-04-16T21:39:38.118Z,87.40
2018-04-16T21:42:13.894Z,86.90
2018-04-16T21:44:49.860Z,86.50
2018-04-16T21:47:25.736Z,86.50
2018-04-16T21:50:01.513Z,86.40
2018-04-16T21:52:39.017Z,86.40
2018-04-16T21:55:15.310Z,86.00
2018-04-16T21:57:52.406Z,85.90
2018-04-16T22:00:28.688Z,86.30
2018-04-16T22:03:05.898Z,86.20
2018-04-16T22:05:42.728Z,86.20
2018-04-16T22:08:19.987Z,86.20
2018-04-16T22:10:56.505Z,86.10
2018-04-16T22:13:32.471Z,86.00
2018-04-16T22:16:08.634Z,86.10
2018-04-16T22:18:44.959Z,85.90
2018-04-16T22:21:22.360Z,85.80
2018-04-16T22:24:00.598Z,85.20
2018-04-16T22:26:37.711Z,85.40
2018-04-16T22:29:15.778Z,85.80
2018-04-16T22:31:51.195Z,85.70
2018-04-16T22:34:28.541Z,85.90
2018-04-16T22:37:04.522Z,86.70
2018-04-16T22:39:40.546Z,86.70
2018-04-16T22:42:17.039Z,87.00
2018-04-16T22:44:53.760Z,87.30
2018-04-16T22:47:29.128Z,87.60
2018-04-16T22:50:07.338Z,86.80
2018-04-16T22:52:44.230Z,86.20
2018-04-16T22:55:20.788Z,86.70
2018-04-16T22:57:58.066Z,86.50
2018-04-16T23:00:35.268Z,87.20
2018-04-16T23:03:12.191Z,87.30
2018-04-16T23:05:49.083Z,86.80
2018-04-16T23:08:25.398Z,87.10
2018-04-16T23:11:01.661Z,86.80
2018-04-16T23:13:37.026Z,87.50
2018-04-16T23:16:13.823Z,87.60
2018-04-16T23:18:51.051Z,87.60
2018-04-16T23:21:27.320Z,87.60
2018-04-16T23:24:02.768Z,88.30
2018-04-16T23:26:41.653Z,86.20
2018-04-16T23:29:18.060Z,86.60
2018-04-16T23:31:54.812Z,86.40
2018-04-16T23:34:30.398Z,84.40
2018-04-16T23:37:08.398Z,84.50
2018-04-16T23:39:45.939Z,84.30
2018-04-16T23:42:23.514Z,85.30
2018-04-16T23:44:59.835Z,83.90
2018-04-16T23:47:35.883Z,85.30
2018-04-16T23:50:11.983Z,86.40
2018-04-16T23:52:48.839Z,86.80
2018-04-16T23:55:24.407Z,87.10
2018-04-16T23:58:00.535Z,87.60
